Time;durP1;ratioP1;P1;durP2;ratioP2;P2;SDS_P1;SDS_P2;PMS_P1;PMS_P2;Temp;Humidity;BMP_temperature;BMP_pressure;BME280_temperature;BME280_humidity;BME280_pressure;Samples;Min_cycle;Max_cycle;Signal;HPM_P1;HPM_P2
2023/04/05 00:01:30;;;;;;;11.07;3.97;;;1.50;99.90;;;;;;5115260;28;20036;-75
2023/04/05 00:03:57;;;;;;;11.13;4.10;;;1.50;99.90;;;;;;5079665;28;20083;-76
2023/04/05 00:06:27;;;;;;;;;;;1.40;99.90;;;;;;5097691;28;20047;-76
2023/04/05 00:08:54;;;;;;;11.40;4.00;;;1.40;99.90;;;;;;5097667;28;19920;-75
2023/04/05 00:11:21;;;;;;;15.25;3.95;;;1.30;99.90;;;;;;5097266;28;20107;-76
2023/04/05 00:13:47;;;;;;;12.23;4.20;;;1.30;99.90;;;;;;5115100;28;20048;-74
2023/04/05 00:16:15;;;;;;;11.35;3.75;;;1.30;99.90;;;;;;5115127;28;20039;-75
2023/04/05 00:18:48;;;;;;;;;;;1.20;99.90;;;;;;5097421;28;20098;-75
2023/04/05 00:21:21;;;;;;;13.02;3.67;;;1.20;99.90;;;;;;5116182;28;20267;-74
2023/04/05 00:23:50;;;;;;;11.68;4.22;;;1.10;99.90;;;;;;5081241;28;20126;-76
2023/04/05 00:26:16;;;;;;;13.13;4.70;;;1.10;99.90;;;;;;5080094;28;20039;-75
2023/04/05 00:28:42;;;;;;;15.40;4.65;;;1.00;99.90;;;;;;5115030;28;20050;-76
2023/04/05 00:31:07;;;;;;;11.90;4.60;;;1.00;99.90;;;;;;5096898;28;20044;-76
2023/04/05 00:33:33;;;;;;;10.98;4.13;;;1.00;99.90;;;;;;5079711;28;20075;-75
2023/04/05 00:36:19;;;;;;;12.23;4.57;;;1.00;99.90;;;;;;5114755;28;20035;-76
2023/04/05 00:38:46;;;;;;;13.45;4.43;;;0.90;99.90;;;;;;5080598;28;20396;-76
2023/04/05 00:41:12;;;;;;;;;;;0.90;99.90;;;;;;5113700;28;20083;-75
2023/04/05 00:43:39;;;;;;;13.25;4.55;;;0.90;99.90;;;;;;5114747;28;19927;-76
2023/04/05 00:46:06;;;;;;;11.63;4.07;;;0.80;99.90;;;;;;5096539;28;20050;-76
2023/04/05 00:48:32;;;;;;;13.73;4.50;;;0.80;99.90;;;;;;5079984;28;20502;-75
2023/04/05 00:50:58;;;;;;;14.85;4.78;;;0.80;99.90;;;;;;5097062;28;20100;-75
2023/04/05 00:53:26;;;;;;;15.48;5.53;;;0.70;99.90;;;;;;5114816;28;20087;-75
2023/04/05 00:55:52;;;;;;;;;;;0.70;99.90;;;;;;5097331;28;20040;-76
2023/04/05 00:58:20;;;;;;;19.00;6.43;;;0.70;99.90;;;;;;5097854;28;19966;-76
2023/04/05 01:01:02;;;;;;;14.23;5.30;;;0.70;99.90;;;;;;5098412;28;20090;-74
2023/04/05 01:03:33;;;;;;;15.00;5.28;;;0.60;99.90;;;;;;5114981;28;20043;-75
2023/04/05 01:06:05;;;;;;;14.45;4.90;;;0.60;99.90;;;;;;5079667;28;20337;-74
2023/04/05 01:08:41;;;;;;;16.10;4.75;;;0.60;99.90;;;;;;5114117;28;20101;-76
2023/04/05 01:11:09;;;;;;;13.20;4.53;;;0.60;99.90;;;;;;5096003;28;20142;-76
2023/04/05 01:13:35;;;;;;;;;;;0.60;99.90;;;;;;5114248;28;20036;-76
2023/04/05 01:16:01;;;;;;;14.95;5.03;;;0.60;99.90;;;;;;5095189;28;19924;-75
2023/04/05 01:18:29;;;;;;;9.93;4.30;;;0.50;99.90;;;;;;5078993;28;20047;-75
2023/04/05 01:21:19;;;;;;;16.33;4.70;;;0.50;99.90;;;;;;5113993;28;20103;-75
2023/04/05 01:23:45;;;;;;;14.45;5.03;;;0.50;99.90;;;;;;5114944;28;20047;-74
2023/04/05 01:26:20;;;;;;;13.63;5.47;;;0.40;99.90;;;;;;5079911;28;20387;-76
2023/04/05 01:28:45;;;;;;;10.77;4.63;;;0.40;99.90;;;;;;5114819;28;20059;-76
2023/04/05 01:31:30;;;;;;;15.00;5.15;;;0.40;99.90;;;;;;5113949;28;20372;-75
2023/04/05 01:34:10;;;;;;;15.15;5.60;;;0.30;99.90;;;;;;5096193;28;20482;-75
2023/04/05 01:36:44;;;;;;;17.60;5.40;;;0.30;99.90;;;;;;5113823;28;20097;-76
2023/04/05 01:39:13;;;;;;;13.38;5.28;;;0.20;99.90;;;;;;5113976;28;20100;-75
2023/04/05 01:41:40;;;;;;;13.35;5.40;;;0.10;99.90;;;;;;5095876;28;20086;-74
2023/04/05 01:44:06;;;;;;;17.10;6.63;;;0.10;99.90;;;;;;5095534;28;20056;-75
2023/04/05 01:46:32;;;;;;;17.08;5.80;;;0.10;99.90;;;;;;5113288;28;20043;-77
2023/04/05 01:48:57;;;;;;;14.18;5.53;;;0.00;99.90;;;;;;5079110;28;20047;-75
2023/04/05 01:51:24;;;;;;;13.55;5.35;;;0.00;99.90;;;;;;5078677;28;20403;-74
2023/04/05 01:53:50;;;;;;;16.08;5.55;;;-0.10;99.90;;;;;;5095754;28;20060;-75
2023/04/05 01:56:16;;;;;;;13.85;5.32;;;-0.10;99.90;;;;;;5113508;28;20044;-73
2023/04/05 01:58:41;;;;;;;15.20;5.53;;;-0.10;99.90;;;;;;5079660;28;20358;-74
2023/04/05 02:01:07;;;;;;;14.85;5.57;;;-0.10;99.90;;;;;;5078806;28;20050;-74
2023/04/05 02:03:33;;;;;;;14.45;5.45;;;-0.10;99.90;;;;;;5079146;28;20134;-74
2023/04/05 02:05:59;;;;;;;14.80;5.97;;;-0.10;99.90;;;;;;5095954;28;20046;-75
2023/04/05 02:08:24;;;;;;;15.18;5.97;;;-0.10;99.90;;;;;;5096732;28;20040;-74
2023/04/05 02:10:52;;;;;;;13.75;5.13;;;-0.20;99.90;;;;;;5095965;28;20546;-75
2023/04/05 02:13:20;;;;;;;14.45;5.57;;;-0.10;99.90;;;;;;5079502;28;20055;-75
2023/04/05 02:15:50;;;;;;;14.60;5.30;;;-0.20;99.90;;;;;;5095454;28;20051;-75
2023/04/05 02:18:21;;;;;;;14.07;5.47;;;-0.20;99.90;;;;;;5096746;28;20048;-75
2023/04/05 02:20:50;;;;;;;15.75;5.30;;;-0.10;99.90;;;;;;5079875;28;20083;-76
2023/04/05 02:23:19;;;;;;;15.98;5.13;;;-0.20;99.90;;;;;;5078413;28;20052;-75
2023/04/05 02:25:46;;;;;;;14.35;5.47;;;-0.30;99.90;;;;;;5079527;28;20120;-74
2023/04/05 02:28:11;;;;;;;15.48;5.40;;;-0.30;99.90;;;;;;5099101;28;20040;-75
2023/04/05 02:30:37;;;;;;;14.45;5.47;;;-0.30;99.90;;;;;;5117199;28;20044;-74
2023/04/05 02:33:03;;;;;;;15.50;5.28;;;-0.30;99.90;;;;;;5117113;28;20399;-75
2023/04/05 02:35:29;;;;;;;17.90;5.97;;;-0.30;99.90;;;;;;5098899;28;20036;-75
2023/04/05 02:37:55;;;;;;;18.38;5.05;;;-0.40;99.90;;;;;;5117477;28;20054;-74
2023/04/05 02:40:21;;;;;;;13.70;5.20;;;-0.40;99.90;;;;;;5082008;28;20617;-77
2023/04/05 02:42:47;;;;;;;16.60;4.80;;;-0.40;99.90;;;;;;5099099;28;20104;-77
2023/04/05 02:45:13;;;;;;;13.48;5.03;;;-0.40;99.90;;;;;;5098972;28;20407;-75
2023/04/05 02:47:38;;;;;;;12.57;4.95;;;-0.40;99.90;;;;;;5116907;28;20365;-75
2023/04/05 02:50:05;;;;;;;15.88;5.72;;;-0.40;99.90;;;;;;5098880;28;20048;-75
2023/04/05 02:52:31;;;;;;;15.07;5.40;;;-0.40;99.90;;;;;;5081698;28;20047;-76
2023/04/05 02:54:56;;;;;;;16.38;5.72;;;-0.50;99.90;;;;;;5081942;28;20054;-75
2023/04/05 02:57:22;;;;;;;13.45;5.43;;;-0.50;99.90;;;;;;5082317;28;20425;-75
2023/04/05 02:59:48;;;;;;;16.13;5.20;;;-0.50;99.90;;;;;;5081436;28;20452;-75
2023/04/05 03:02:14;;;;;;;16.35;6.00;;;-0.50;99.90;;;;;;5116917;28;20051;-75
2023/04/05 03:04:40;;;;;;;13.50;5.47;;;-0.60;99.90;;;;;;5081848;28;20051;-74
2023/04/05 03:07:06;;;;;;;17.52;6.13;;;-0.50;99.90;;;;;;5082740;28;20286;-76
2023/04/05 03:09:32;;;;;;;16.70;6.15;;;-0.50;99.90;;;;;;5081896;28;20043;-75
2023/04/05 03:12:04;;;;;;;14.10;5.60;;;-0.50;99.90;;;;;;5116887;28;20047;-75
2023/04/05 03:14:31;;;;;;;14.98;6.50;;;-0.60;99.90;;;;;;5081854;28;20122;-75
2023/04/05 03:16:57;;;;;;;18.85;6.43;;;-0.60;99.90;;;;;;5082002;28;20043;-75
2023/04/05 03:19:25;;;;;;;19.60;7.38;;;-0.60;99.90;;;;;;5098416;28;20043;-76
2023/04/05 03:21:52;;;;;;;16.08;6.93;;;-0.60;99.90;;;;;;5097919;28;20059;-77
2023/04/05 03:24:18;;;;;;;19.80;7.82;;;-0.60;99.90;;;;;;5116491;28;20079;-74
2023/04/05 03:26:45;;;;;;;19.52;7.13;;;-0.70;99.90;;;;;;5081164;28;20062;-75
2023/04/05 03:29:11;;;;;;;18.73;7.68;;;-0.60;99.90;;;;;;5116198;28;20086;-76
2023/04/05 03:31:37;;;;;;;16.35;6.60;;;-0.70;99.90;;;;;;5097879;28;20051;-76
2023/04/05 03:34:03;;;;;;;18.60;7.03;;;-0.70;99.90;;;;;;5116073;28;20448;-76
2023/04/05 03:36:29;;;;;;;22.40;7.18;;;-0.70;99.90;;;;;;5115409;28;20040;-76
2023/04/05 03:38:55;;;;;;;17.80;7.07;;;-0.70;99.90;;;;;;5115594;28;20065;-76
2023/04/05 03:41:21;;;;;;;18.05;6.57;;;-0.70;99.90;;;;;;5116230;28;20047;-76
2023/04/05 03:43:48;;;;;;;21.25;7.50;;;-0.80;99.90;;;;;;5081505;28;20522;-76
2023/04/05 03:46:14;;;;;;;20.20;6.72;;;-0.80;99.90;;;;;;5098697;28;20497;-77
2023/04/05 03:48:40;;;;;;;25.02;8.02;;;-0.80;99.90;;;;;;5098352;28;20055;-77
2023/04/05 03:51:06;;;;;;;17.95;7.25;;;-0.80;99.90;;;;;;5116204;28;20047;-77
2023/04/05 03:53:32;;;;;;;17.92;8.13;;;-0.80;99.90;;;;;;5116538;28;20344;-76
2023/04/05 03:55:58;;;;;;;22.08;7.28;;;-0.80;99.90;;;;;;5081163;28;20051;-77
2023/04/05 03:58:27;;;;;;;24.60;7.47;;;-0.90;99.90;;;;;;5081117;28;20044;-77
2023/04/05 04:00:55;;;;;;;20.95;7.35;;;-0.90;99.90;;;;;;5081379;28;20051;-76
2023/04/05 04:03:20;;;;;;;20.95;7.22;;;-0.90;99.90;;;;;;5097736;28;20047;-78
2023/04/05 04:05:46;;;;;;;23.15;7.28;;;-0.90;99.90;;;;;;5098131;28;20456;-76
2023/04/05 04:08:12;;;;;;;25.92;8.63;;;-0.80;99.90;;;;;;5098502;28;20387;-78
2023/04/05 04:10:38;;;;;;;28.42;9.02;;;-0.80;99.90;;;;;;5081143;28;20051;-76
2023/04/05 04:13:04;;;;;;;24.00;8.15;;;-0.80;99.90;;;;;;5098184;28;20104;-76
2023/04/05 04:15:30;;;;;;;23.00;8.13;;;-0.80;99.90;;;;;;5116567;28;20048;-78
2023/04/05 04:17:56;;;;;;;23.55;8.52;;;-0.90;99.90;;;;;;5098719;28;20456;-76
2023/04/05 04:20:22;;;;;;;23.60;9.05;;;-0.90;99.90;;;;;;5080966;28;20052;-77
2023/04/05 04:22:48;;;;;;;24.67;8.55;;;-1.00;99.90;;;;;;5116025;28;20399;-77
2023/04/05 04:25:17;;;;;;;19.73;8.35;;;-1.00;99.90;;;;;;5098785;28;20089;-77
2023/04/05 04:27:43;;;;;;;20.98;7.70;;;-1.00;99.90;;;;;;5098429;28;20086;-76
2023/04/05 04:30:11;;;;;;;23.25;7.80;;;-1.00;99.90;;;;;;5098448;28;20043;-76
2023/04/05 04:32:50;;;;;;;24.42;8.45;;;-1.00;99.90;;;;;;5099527;28;20054;-77
2023/04/05 04:35:23;;;;;;;27.70;8.90;;;-1.00;99.90;;;;;;5116405;28;20104;-76
2023/04/05 04:37:57;;;;;;;25.85;9.02;;;-0.90;99.90;;;;;;5099848;28;20418;-76
2023/04/05 04:40:28;;;;;;;29.20;10.55;;;-1.00;99.90;;;;;;5116244;28;20052;-76
2023/04/05 04:42:57;;;;;;;25.50;9.27;;;-1.00;99.90;;;;;;5080686;28;20089;-77
2023/04/05 04:45:23;;;;;;;26.63;9.55;;;-1.00;99.90;;;;;;5117974;28;20384;-77
2023/04/05 04:47:52;;;;;;;30.58;11.23;;;-1.00;99.90;;;;;;5115662;28;20506;-76
2023/04/05 04:50:19;;;;;;;26.50;9.93;;;-1.00;99.90;;;;;;5115568;28;20043;-76
2023/04/05 04:52:46;;;;;;;25.10;10.13;;;-1.00;99.90;;;;;;5097934;28;20101;-78
2023/04/05 04:55:13;;;;;;;27.98;10.30;;;-0.90;99.90;;;;;;5097639;28;20051;-76
2023/04/05 04:57:40;;;;;;;23.95;9.75;;;-1.00;99.90;;;;;;5115653;28;20127;-78
2023/04/05 05:00:14;;;;;;;25.95;10.10;;;-1.00;99.90;;;;;;5098683;28;20083;-78
2023/04/05 05:02:41;;;;;;;22.00;8.88;;;-1.00;99.90;;;;;;5098070;28;20434;-78
2023/04/05 05:05:07;;;;;;;25.52;10.23;;;-1.00;99.90;;;;;;5115620;28;20047;-77
2023/04/05 05:07:34;;;;;;;25.00;9.45;;;-1.00;99.90;;;;;;5080923;28;20052;-77
2023/04/05 05:10:00;;;;;;;36.22;12.25;;;-1.00;99.90;;;;;;5119081;28;20075;-79
2023/04/05 05:12:26;;;;;;;41.72;13.32;;;-0.90;99.90;;;;;;5082283;28;20379;-79
2023/04/05 05:14:52;;;;;;;37.95;12.82;;;-0.90;99.90;;;;;;5115611;28;20040;-80
2023/04/05 05:17:18;;;;;;;36.45;13.07;;;-0.90;99.90;;;;;;5116724;28;20467;-78
2023/04/05 05:19:44;;;;;;;32.90;12.52;;;-0.90;99.90;;;;;;5115117;28;20071;-79
2023/04/05 05:22:10;;;;;;;26.73;10.73;;;-0.90;99.90;;;;;;5081728;28;20187;-78
2023/04/05 05:24:36;;;;;;;26.65;10.93;;;-0.90;99.90;;;;;;5098670;28;20509;-76
2023/04/05 05:27:01;;;;;;;27.10;9.98;;;-0.90;99.90;;;;;;5098245;28;20047;-77
2023/04/05 05:29:27;;;;;;;25.30;9.98;;;-0.80;99.90;;;;;;5115738;28;20051;-77
2023/04/05 05:31:54;;;;;;;24.55;9.60;;;-0.80;99.90;;;;;;5098022;28;20052;-77
2023/04/05 05:34:20;;;;;;;31.00;11.23;;;-0.80;99.90;;;;;;5098704;28;20054;-78
2023/04/05 05:36:46;;;;;;;37.15;12.75;;;-0.80;99.90;;;;;;5098371;28;20036;-77
2023/04/05 05:39:12;;;;;;;46.25;14.00;;;-0.70;99.90;;;;;;5099368;28;20380;-76
2023/04/05 05:41:38;;;;;;;46.05;14.57;;;-0.60;99.90;;;;;;5100320;28;20055;-77
2023/04/05 05:44:04;;;;;;;53.47;15.63;;;-0.60;99.90;;;;;;5115207;28;20056;-75
2023/04/05 05:46:30;;;;;;;37.55;13.88;;;-0.50;99.90;;;;;;5113140;28;20051;-79
2023/04/05 05:48:56;;;;;;;37.60;13.30;;;-0.40;99.90;;;;;;5080395;28;20392;-77
2023/04/05 05:51:21;;;;;;;29.70;11.13;;;-0.30;99.90;;;;;;5096389;28;20442;-77
2023/04/05 05:53:47;;;;;;;27.85;10.20;;;-0.30;99.90;;;;;;5112651;28;20063;-78
2023/04/05 05:56:13;;;;;;;23.90;10.45;;;-0.20;99.90;;;;;;5097484;28;20083;-78
2023/04/05 05:58:39;;;;;;;29.60;11.07;;;0.00;99.90;;;;;;5079482;28;20451;-79
2023/04/05 06:01:10;;;;;;;20.70;10.63;;;0.00;99.90;;;;;;5098183;28;20124;-77
2023/04/05 06:03:37;;;;;;;27.83;10.88;;;0.10;99.90;;;;;;5084048;28;20100;-79
2023/04/05 06:06:07;;;;;;;27.92;11.90;;;0.10;99.90;;;;;;5101315;28;20048;-76
2023/04/05 06:08:33;;;;;;;28.77;11.20;;;0.20;99.90;;;;;;5101140;28;20048;-79
2023/04/05 06:10:59;;;;;;;25.58;11.27;;;0.30;99.90;;;;;;5099893;28;20099;-78
2023/04/05 06:13:25;;;;;;;22.67;10.68;;;0.30;99.90;;;;;;5100882;28;20083;-78
2023/04/05 06:15:50;;;;;;;26.48;11.07;;;0.40;99.90;;;;;;5099977;28;20044;-78
2023/04/05 06:18:16;;;;;;;24.15;11.82;;;0.50;99.90;;;;;;5118708;28;20044;-79
2023/04/05 06:20:43;;;;;;;21.92;10.68;;;0.50;99.90;;;;;;5117581;28;20388;-78
2023/04/05 06:23:12;;;;;;;28.88;11.73;;;0.60;99.90;;;;;;5101651;28;20052;-78
2023/04/05 06:25:39;;;;;;;25.90;12.00;;;0.60;99.90;;;;;;5102729;28;20464;-79
2023/04/05 06:28:06;;;;;;;23.58;12.10;;;0.70;99.90;;;;;;5099980;28;20048;-79
2023/04/05 06:30:32;;;;;;;26.35;11.68;;;0.90;99.90;;;;;;5099419;28;20052;-78
2023/04/05 06:32:58;;;;;;;25.80;12.30;;;0.80;99.90;;;;;;5099814;28;20558;-77
2023/04/05 06:35:25;;;;;;;24.33;11.82;;;0.90;99.90;;;;;;5083125;28;20363;-76
2023/04/05 06:37:52;;;;;;;23.90;11.35;;;1.00;99.90;;;;;;5064641;28;20051;-73
2023/04/05 06:40:18;;;;;;;24.10;11.30;;;1.00;99.90;;;;;;5081277;28;20063;-76
2023/04/05 06:42:44;;;;;;;26.25;12.05;;;1.10;99.90;;;;;;5098820;28;20053;-77
2023/04/05 06:45:11;;;;;;;25.25;11.63;;;1.30;99.90;;;;;;5080338;28;20060;-77
2023/04/05 06:47:38;;;;;;;23.07;11.40;;;1.30;99.90;;;;;;5099316;28;20051;-77
2023/04/05 06:50:06;;;;;;;19.38;9.57;;;1.40;99.90;;;;;;5098797;28;20051;-74
2023/04/05 06:52:32;;;;;;;23.77;11.10;;;1.50;99.90;;;;;;5080001;28;20056;-75
2023/04/05 06:54:58;;;;;;;21.02;10.63;;;1.50;99.90;;;;;;5096225;28;20071;-75
2023/04/05 06:57:24;;;;;;;25.95;11.07;;;1.60;99.90;;;;;;5078677;28;20468;-77
2023/04/05 06:59:52;;;;;;;25.70;10.68;;;1.70;99.90;;;;;;5096275;28;20048;-77
2023/04/05 07:02:18;;;;;;;22.00;10.98;;;1.80;99.90;;;;;;5098461;28;20126;-76
2023/04/05 07:04:45;;;;;;;22.50;11.13;;;1.90;99.90;;;;;;5095902;28;20055;-77
2023/04/05 07:07:12;;;;;;;21.83;10.70;;;2.00;99.90;;;;;;5063138;28;20472;-76
2023/04/05 07:09:38;;;;;;;23.48;11.50;;;2.10;99.90;;;;;;5081096;28;20488;-75
2023/04/05 07:12:06;;;;;;;23.33;10.45;;;2.30;99.90;;;;;;5097236;28;20058;-77
2023/04/05 07:14:32;;;;;;;;;;;2.30;99.90;;;;;;5084044;28;20056;-77
2023/04/05 07:16:58;;;;;;;19.93;8.87;;;2.40;99.90;;;;;;5084673;28;19920;-77
2023/04/05 07:19:23;;;;;;;22.90;9.43;;;2.50;99.90;;;;;;5082222;28;20296;-76
2023/04/05 07:21:49;;;;;;;20.42;10.00;;;2.60;99.90;;;;;;5081667;28;20476;-76
2023/04/05 07:24:15;;;;;;;20.58;9.73;;;2.70;99.90;;;;;;5081515;28;20126;-76
2023/04/05 07:26:41;;;;;;;21.05;10.18;;;2.80;99.90;;;;;;5100715;28;20127;-78
2023/04/05 07:29:07;;;;;;;21.60;9.80;;;2.90;99.90;;;;;;5101541;28;20446;-76
2023/04/05 07:31:40;;;;;;;18.23;8.98;;;3.00;99.90;;;;;;5083820;28;20054;-79
2023/04/05 07:34:05;;;;;;;18.83;9.35;;;3.10;99.90;;;;;;5103454;28;20048;-78
2023/04/05 07:36:32;;;;;;;20.17;9.63;;;3.20;99.90;;;;;;5082719;28;20051;-78
2023/04/05 07:38:59;;;;;;;18.60;8.40;;;3.30;99.90;;;;;;5100514;28;20396;-77
2023/04/05 07:41:30;;;;;;;18.08;9.00;;;3.40;99.90;;;;;;5083356;28;20047;-77
2023/04/05 07:43:56;;;;;;;19.98;9.27;;;3.50;99.90;;;;;;5102010;28;20484;-77
2023/04/05 07:46:22;;;;;;;18.25;8.48;;;3.60;99.90;;;;;;5101220;28;20063;-78
2023/04/05 07:48:49;;;;;;;24.95;9.10;;;3.70;99.90;;;;;;5100635;28;20039;-77
2023/04/05 07:51:14;;;;;;;16.55;8.05;;;3.80;99.90;;;;;;5099962;28;20392;-78
2023/04/05 07:53:41;;;;;;;20.80;8.82;;;3.90;99.90;;;;;;5103575;28;20048;-77
2023/04/05 07:56:13;;;;;;;17.38;7.97;;;4.10;99.90;;;;;;5086023;28;20044;-79
2023/04/05 07:58:42;;;;;;;17.42;8.10;;;4.20;99.90;;;;;;5101536;28;20052;-80
2023/04/05 08:01:09;;;;;;;16.77;8.13;;;4.30;99.90;;;;;;5103209;28;20103;-80
2023/04/05 08:03:35;;;;;;;;;;;4.40;99.90;;;;;;5087624;28;20388;-76
2023/04/05 08:06:12;;;;;;;18.70;7.07;;;4.50;99.90;;;;;;5084390;28;19924;-78
2023/04/05 08:08:38;;;;;;;18.80;7.20;;;4.60;99.90;;;;;;5101985;28;20492;-80
2023/04/05 08:11:04;;;;;;;16.50;6.88;;;4.60;99.90;;;;;;5086007;28;20052;-77
2023/04/05 08:13:32;;;;;;;15.18;6.50;;;4.80;99.90;;;;;;5080688;28;20104;-77
2023/04/05 08:16:00;;;;;;;14.77;7.30;;;4.90;99.90;;;;;;5078815;28;20438;-78
2023/04/05 08:18:25;;;;;;;14.30;6.85;;;4.90;99.90;;;;;;5096124;28;20071;-80
2023/04/05 08:20:55;;;;;;;15.43;7.30;;;5.00;99.90;;;;;;5112624;28;20044;-82
2023/04/05 08:23:21;;;;;;;13.95;7.50;;;5.20;99.90;;;;;;5078064;28;20079;-78
2023/04/05 08:25:51;;;;;;;12.63;6.60;;;5.30;99.90;;;;;;5107763;28;20040;-86
2023/04/05 08:28:17;;;;;;;14.10;7.25;;;5.40;99.90;;;;;;5095650;28;20046;-85
2023/04/05 08:30:44;;;;;;;16.98;7.65;;;5.60;99.90;;;;;;5103878;28;20040;-78
2023/04/05 08:33:09;;;;;;;14.73;7.13;;;5.60;99.90;;;;;;5095967;28;20051;-79
2023/04/05 08:35:36;;;;;;;13.52;6.72;;;5.70;99.90;;;;;;5069009;28;20140;-80
2023/04/05 08:38:02;;;;;;;14.73;7.40;;;5.70;99.90;;;;;;5078200;28;20055;-81
2023/04/05 08:40:43;;;;;;;14.43;7.03;;;5.90;99.90;;;;;;5109811;28;20069;-79
2023/04/05 08:43:39;;;;;;;14.07;6.10;;;5.90;99.90;;;;;;5077642;28;20052;-79
2023/04/05 08:46:08;;;;;;;15.93;5.50;;;6.00;99.90;;;;;;5093598;28;20083;-76
2023/04/05 08:48:35;;;;;;;18.90;7.28;;;6.10;99.90;;;;;;5078935;28;20100;-80
2023/04/05 08:51:01;;;;;;;13.23;6.13;;;6.20;99.90;;;;;;5096919;28;20048;-80
2023/04/05 08:53:26;;;;;;;11.45;5.10;;;6.30;99.90;;;;;;5085856;28;20052;-80
2023/04/05 08:55:55;;;;;;;10.30;4.43;;;6.30;99.90;;;;;;5098261;28;20050;-78
2023/04/05 08:58:23;;;;;;;11.43;4.90;;;6.40;99.90;;;;;;5103526;28;20128;-85
2023/04/05 09:00:52;;;;;;;11.23;5.20;;;6.40;99.90;;;;;;5110185;28;20125;-82
2023/04/05 09:03:24;;;;;;;9.18;3.83;;;6.60;99.90;;;;;;5079666;28;20101;-78
2023/04/05 09:05:51;;;;;;;11.10;4.32;;;6.60;99.90;;;;;;5094905;28;20048;-80
2023/04/05 09:08:17;;;;;;;6.05;2.50;;;6.70;99.90;;;;;;5083197;28;20051;-81
2023/04/05 09:10:43;;;;;;;9.32;2.05;;;6.80;99.90;;;;;;5082651;28;20050;-84
2023/04/05 09:13:09;;;;;;;9.02;2.88;;;7.00;99.90;;;;;;5079412;28;20052;-81
2023/04/05 09:15:40;;;;;;;8.25;3.00;;;7.10;99.90;;;;;;5078658;28;20122;-85
2023/04/05 09:18:06;;;;;;;6.75;2.28;;;7.20;99.90;;;;;;5082175;28;20126;-83
2023/04/05 09:20:32;;;;;;;7.60;2.55;;;7.20;99.90;;;;;;5064309;28;20102;-84
2023/04/05 09:22:57;;;;;;;8.43;3.00;;;7.30;99.90;;;;;;5099842;28;20099;-84
2023/04/05 09:25:37;;;;;;;8.75;2.45;;;7.30;99.90;;;;;;5100911;28;20048;-84
2023/04/05 09:28:07;;;;;;;7.55;2.60;;;7.30;99.90;;;;;;5095961;28;20047;-80
2023/04/05 09:30:35;;;;;;;7.47;1.88;;;7.40;99.90;;;;;;5079785;28;20062;-77
2023/04/05 09:33:02;;;;;;;6.90;2.33;;;7.60;99.90;;;;;;5098149;28;20130;-78
2023/04/05 09:35:32;;;;;;;8.18;2.97;;;7.60;99.90;;;;;;5094280;28;20519;-79
2023/04/05 09:38:04;;;;;;;8.40;3.00;;;7.50;99.30;;;;;;5096225;28;20056;-82
2023/04/05 09:41:07;;;;;;;12.63;2.50;;;7.60;99.90;;;;;;5097088;28;20388;-80
2023/04/05 09:43:40;;;;;;;9.80;2.60;;;7.70;99.90;;;;;;5087637;28;20056;-81
2023/04/05 09:46:15;;;;;;;10.40;2.70;;;7.80;97.60;;;;;;5081722;28;20218;-79
2023/04/05 09:48:48;;;;;;;8.45;2.88;;;7.80;98.30;;;;;;5113812;28;20507;-81
2023/04/05 09:51:15;;;;;;;6.30;2.67;;;7.80;98.70;;;;;;5097296;28;20039;-81
2023/04/05 09:53:56;;;;;;;;;;;7.90;98.90;;;;;;5116315;28;20052;-80
2023/04/05 09:56:22;;;;;;;7.18;2.85;;;7.90;97.30;;;;;;5118681;28;19926;-78
2023/04/05 09:58:50;;;;;;;9.30;3.20;;;8.00;98.50;;;;;;5079653;28;20475;-81
2023/04/05 10:01:17;;;;;;;8.65;3.63;;;7.90;98.00;;;;;;5096876;28;20479;-82
2023/04/05 10:03:47;;;;;;;8.60;3.05;;;7.90;94.30;;;;;;5102337;28;20059;-84
2023/04/05 10:06:14;;;;;;;6.85;3.28;;;7.80;96.80;;;;;;5121069;28;20429;-83
2023/04/05 10:08:40;;;;;;;10.45;3.47;;;8.00;97.20;;;;;;5099395;28;20062;-82
2023/04/05 10:11:07;;;;;;;8.65;3.65;;;8.10;97.50;;;;;;5098735;28;20472;-77
2023/04/05 10:13:33;;;;;;;8.07;3.50;;;8.20;97.00;;;;;;5079979;28;20448;-80
2023/04/05 10:16:00;;;;;;;10.73;3.83;;;8.20;97.20;;;;;;5095720;28;20372;-76
2023/04/05 10:18:41;;;;;;;10.93;3.67;;;8.20;96.90;;;;;;5080895;28;20054;-83
2023/04/05 10:21:10;;;;;;;10.85;3.70;;;8.20;94.80;;;;;;5081765;28;20052;-78
2023/04/05 10:23:40;;;;;;;10.73;3.67;;;8.30;95.00;;;;;;5078944;28;20126;-76
2023/04/05 10:26:37;;;;;;;9.98;4.07;;;8.50;97.00;;;;;;5096399;28;20050;-79
2023/04/05 10:29:09;;;;;;;;;;;8.60;96.50;;;;;;5103920;28;20052;-80
2023/04/05 10:31:41;;;;;;;12.30;4.03;;;8.50;96.40;;;;;;5080683;28;19920;-82
2023/04/05 10:34:14;;;;;;;8.75;4.20;;;8.50;92.90;;;;;;5097754;28;20436;-78
2023/04/05 10:36:52;;;;;;;8.00;3.63;;;8.70;94.50;;;;;;5081629;28;20046;-83
2023/04/05 10:39:25;;;;;;;12.50;3.97;;;8.80;95.30;;;;;;5120984;28;20425;-79
2023/04/05 10:41:54;;;;;;;11.93;4.35;;;8.80;94.90;;;;;;5105546;28;20414;-82
2023/04/05 10:44:20;;;;;;;11.23;4.03;;;8.80;92.50;;;;;;5084140;28;20059;-82
2023/04/05 10:46:46;;;;;;;8.20;3.72;;;8.80;93.10;;;;;;5096893;28;20040;-81
2023/04/05 10:49:21;;;;;;;8.70;3.60;;;8.90;94.80;;;;;;5117689;28;20146;-82
2023/04/05 10:51:47;;;;;;;12.95;3.75;;;8.80;93.50;;;;;;5117763;28;20054;-79
2023/04/05 10:54:16;;;;;;;8.65;4.03;;;8.80;95.30;;;;;;5117609;28;20040;-82
2023/04/05 10:56:42;;;;;;;11.43;4.22;;;8.80;95.30;;;;;;5083068;28;20040;-79
2023/04/05 10:59:10;;;;;;;10.75;3.90;;;8.80;95.30;;;;;;5117734;28;20070;-80
2023/04/05 11:01:37;;;;;;;10.50;3.97;;;8.80;94.30;;;;;;5099774;28;20047;-81
2023/04/05 11:04:16;;;;;;;9.27;4.10;;;8.80;94.90;;;;;;5119931;28;20047;-81
2023/04/05 11:06:46;;;;;;;9.07;3.70;;;8.90;93.30;;;;;;5100921;28;20052;-79
2023/04/05 11:09:20;;;;;;;8.35;3.55;;;9.00;94.80;;;;;;5118157;28;20057;-81
2023/04/05 11:11:47;;;;;;;8.57;3.72;;;9.00;94.00;;;;;;5100606;28;20040;-76
2023/04/05 11:14:38;;;;;;;9.35;4.05;;;9.10;93.60;;;;;;5116800;28;20058;-75
2023/04/05 11:17:22;;;;;;;9.15;3.95;;;9.20;92.60;;;;;;5116483;28;20047;-80
2023/04/05 11:19:57;;;;;;;11.95;3.95;;;9.20;92.60;;;;;;5115890;28;20067;-82
2023/04/05 11:22:30;;;;;;;7.88;3.35;;;9.20;92.90;;;;;;5098881;28;20047;-76
2023/04/05 11:25:01;;;;;;;7.28;3.45;;;9.30;92.10;;;;;;5098149;28;20130;-75
2023/04/05 11:27:39;;;;;;;10.73;3.90;;;9.20;91.90;;;;;;5116766;28;20475;-81
2023/04/05 11:30:06;;;;;;;7.47;3.17;;;8.90;90.20;;;;;;5100205;28;20056;-77
2023/04/05 11:32:40;;;;;;;9.98;3.80;;;9.10;91.20;;;;;;5098543;28;20487;-82
2023/04/05 11:35:11;;;;;;;9.93;3.75;;;9.00;91.60;;;;;;5098476;28;20057;-78
2023/04/05 11:37:57;;;;;;;9.38;3.40;;;9.10;92.00;;;;;;5098477;28;20476;-83
2023/04/05 11:40:25;;;;;;;9.03;3.70;;;9.10;91.00;;;;;;5120114;28;20069;-76
2023/04/05 11:43:09;;;;;;;9.85;3.83;;;9.00;91.40;;;;;;5085493;28;20047;-80
2023/04/05 11:45:36;;;;;;;8.85;3.75;;;9.10;91.20;;;;;;5101257;28;20054;-79
2023/04/05 11:48:06;;;;;;;7.30;3.88;;;9.30;90.90;;;;;;5106464;28;20066;-81
2023/04/05 11:50:32;;;;;;;8.65;4.00;;;9.40;91.70;;;;;;5126074;28;20044;-80
2023/04/05 11:53:11;;;;;;;8.77;3.70;;;9.40;92.20;;;;;;5089052;28;20134;-84
2023/04/05 11:55:42;;;;;;;9.02;4.07;;;9.50;90.50;;;;;;5118275;28;20079;-79
2023/04/05 11:58:21;;;;;;;7.20;3.40;;;9.50;92.20;;;;;;5098743;28;20450;-83
2023/04/05 12:00:57;;;;;;;9.32;3.80;;;9.60;91.40;;;;;;5098873;28;20047;-83
2023/04/05 12:03:23;;;;;;;9.40;3.83;;;9.50;88.90;;;;;;5081265;28;20092;-83
2023/04/05 12:05:50;;;;;;;8.23;3.45;;;9.40;88.10;;;;;;5099661;28;20056;-82
2023/04/05 12:08:20;;;;;;;7.85;4.03;;;9.20;83.70;;;;;;5102795;28;20055;-80
2023/04/05 12:10:56;;;;;;;8.75;3.65;;;9.10;83.70;;;;;;5123298;28;20054;-81
2023/04/05 12:13:31;;;;;;;10.02;3.83;;;9.10;86.90;;;;;;5102128;28;20041;-80
2023/04/05 12:16:01;;;;;;;6.97;3.30;;;9.30;90.00;;;;;;5119018;28;20058;-81
2023/04/05 12:18:30;;;;;;;10.82;3.60;;;9.50;90.70;;;;;;5100586;28;20044;-81
2023/04/05 12:20:56;;;;;;;9.52;3.83;;;9.60;90.30;;;;;;5118701;28;20047;-75
2023/04/05 12:23:23;;;;;;;7.83;2.77;;;9.60;90.60;;;;;;5099103;28;20058;-77
2023/04/05 12:25:49;;;;;;;9.73;3.63;;;9.90;88.80;;;;;;5098028;28;20333;-82
2023/04/05 12:28:15;;;;;;;7.07;3.47;;;9.90;89.10;;;;;;5116983;28;20067;-79
2023/04/05 12:30:58;;;;;;;8.52;3.95;;;9.80;87.60;;;;;;5118166;28;20067;-81
2023/04/05 12:33:32;;;;;;;11.90;2.85;;;9.80;89.80;;;;;;5117253;28;20047;-77
2023/04/05 12:36:04;;;;;;;8.27;3.65;;;9.90;87.90;;;;;;5100532;28;20039;-82
2023/04/05 12:38:30;;;;;;;9.10;3.85;;;9.80;86.10;;;;;;5083889;28;20057;-82
2023/04/05 12:41:01;;;;;;;10.90;4.18;;;9.80;87.60;;;;;;5080632;28;20044;-80
2023/04/05 12:43:41;;;;;;;7.53;2.85;;;9.80;89.00;;;;;;5098864;28;20079;-76
2023/04/05 12:46:17;;;;;;;8.60;4.13;;;9.90;87.80;;;;;;5081444;28;20048;-81
2023/04/05 12:48:48;;;;;;;7.95;3.90;;;9.90;87.50;;;;;;5100322;28;20063;-83
2023/04/05 12:51:15;;;;;;;8.15;3.30;;;9.90;87.30;;;;;;5080898;28;20134;-78
2023/04/05 12:53:47;;;;;;;7.63;3.47;;;9.90;88.40;;;;;;5097351;28;20058;-78